Aviation Digital Data Service (ADDS)

Output produced by METARs form (1208 UTC 26 March 2019)
found at http://www.aviationweather.gov/metar/data/
 
KOAJ 261130Z 2612/2712 01011G18KT P6SM OVC015 
     FM261600 02012G20KT P6SM SCT200 
     TEMPO 2616/2618 BKN025 
     FM262300 02005KT P6SM SKC AMD LTD TO CLD VIS AND WIND
       
KOAK 261157Z 2612/2718 VRB03KT P6SM SCT015 BKN060 
     FM261800 20004KT P6SM FEW025 BKN060 
     FM262200 24010KT P6SM BKN050 
     FM270700 13005KT P6SM VCSH SCT040 BKN050 OVC100 
     FM271100 13010KT P6SM -RA BKN025 OVC040 
     FM271600 16006KT P6SM -SHRA BKN030 BKN050
       
TAF KOFF 261000Z 2610/2716 12006KT 9999 BKN060 620605 QNH3035INS 
     BECMG 2617/2618 16010G15KT 9999 BKN040 620405 QNH3023INS 
     BECMG 2623/2624 16012KT 9999 BKN040 620405 QNH3007INS 
     BECMG 2713/2714 18012G18KT 9999 BKN040 620405 QNH3002INS 
     BECMG 2715/2716 19015G25KT 9999 BKN040 620405 QNH2999INS TX13/2623Z
TN04/2611Z
       
KOFK 261120Z 2612/2712 13005KT P6SM OVC025 
     FM261600 17015KT P6SM BKN035 
     FM262000 18014KT P6SM SCT200 
     FM270700 19012G20KT P6SM FEW250 WS020/22045KT
       
KOGB 261126Z 2612/2712 32005KT P6SM OVC009 
     FM261500 04012G20KT P6SM OVC015 
     FM262100 06010G16KT P6SM BKN035 
     FM270000 05006KT P6SM SCT060
       
KOGD 261120Z 2612/2712 16008KT P6SM BKN200 
     TEMPO 2616/2618 19012G22KT 
     FM262100 26006KT P6SM BKN200 
     FM270200 17008KT P6SM SCT200
       
KOKC 261130Z 2612/2712 01005KT 5SM BR FEW100 
     TEMPO 2612/2615 2SM BR 
     FM261500 15010KT P6SM SCT100 
     TEMPO 2615/2619 BKN100
       
KOLF 261120Z 2612/2712 VRB04KT P6SM VCFG FEW002 SCT070 
     FM261700 VRB06KT P6SM BKN120 
     FM270900 28009KT P6SM BKN045
       
KOLM 261132Z 2612/2712 VRB03KT P6SM SCT010 BKN035 
     TEMPO 2612/2616 2SM BR BKN010 BKN035 
     FM261600 VRB03KT P6SM SCT020 BKN045 
     FM262100 VRB03KT P6SM SCT250 
     FM270900 00000KT 1SM BR BKN002
       
KOLS 261129Z 2612/2712 VRB03KT P6SM BKN250 
     FM261800 21008KT P6SM BKN250 
     FM270200 VRB03KT P6SM BKN250
       
KOMA 261120Z 2612/2712 14006KT P6SM OVC060 
     FM261300 15005KT P6SM BKN060 
     FM261700 16014KT P6SM SCT080 
     FM270600 17013KT P6SM FEW200 WS020/21040KT
       
KONP 261134Z 2612/2712 11006KT P6SM BKN050 OVC110 
     FM261300 12005KT P6SM SCT020 BKN050 
     FM261700 22005KT P6SM SCT250 
     FM270000 35003KT P6SM SCT250 
     FM270700 07005KT P6SM SCT250
       
KONT 261122Z 2612/2718 VRB04KT P6SM SCT250 
     FM262100 25011KT P6SM SCT150 BKN250 
     FM270500 25005KT P6SM SCT010 BKN200 
     FM271100 VRB04KT P6SM BKN009 
     FM271600 VRB03KT P6SM SCT010 BKN200
       
KOPF 261154Z 2612/2712 31007KT P6SM FEW020 
     FM262200 04008KT P6SM VCSH SCT035 
     FM270100 30004KT P6SM SCT030
       
KORD 261120Z 2612/2718 03005KT P6SM SKC 
     FM261500 08006KT P6SM FEW200 
     FM262100 10010KT P6SM SCT200 
     FM270200 16004KT P6SM SKC 
     FM271300 19009KT P6SM FEW250
       
KORF 261120Z 2612/2712 02018G30KT P6SM BKN020 BKN040 
     FM261300 02020G32KT P6SM OVC080 
     FM261600 02020G32KT P6SM SCT250 
     FM270100 04014G24KT P6SM SKC
       
KORH 261121Z 2612/2712 36008KT P6SM SKC
       
KOTH 261141Z 2612/2712 14005KT P6SM FEW050 
     FM262200 27007KT P6SM FEW080 SCT200 
     FM270600 12004KT P6SM OVC080
       
KOTM 261137Z 2612/2712 13006KT P6SM SCT035 
     FM270600 16008KT P6SM FEW250
       
KOUN 261130Z 2612/2712 01005KT 4SM BR FEW100 
     TEMPO 2612/2615 1/2SM FG VV003 
     FM261500 14008KT P6SM SCT100 
     TEMPO 2615/2619 BKN100
       
KOWB 261120Z 2612/2712 03006KT P6SM SKC 
     FM261400 05009KT P6SM SKC 
     FM262100 02009KT P6SM SKC 
     FM270200 03004KT P6SM SKC
       
KOXR 261123Z 2612/2712 VRB03KT P6SM BKN200 
     FM262000 26012KT P6SM SCT080 OVC150 
     FM270400 31006KT P6SM FEW025 OVC050 
     FM270600 VRB03KT P6SM BKN025 OVC040
       
TAF KOZR 260800Z 2608/2714 33006KT 8000 BR SCT020 BKN030 QNH3000INS 
     BECMG 2611/2612 33006KT 8000 BR SCT010 BKN020 QNH3009INS 
     BECMG 2617/2618 33010G15KT 9999 NSW BKN030 QNH3015INS 
     BECMG 2700/2701 36009KT 9999 SCT015 BKN030 QNH3021INS 
     BECMG 2708/2709 03009KT 9999 BKN015 QNH3026INS TX19/2619Z TN10/2612Z